Time;durP1;ratioP1;P1;durP2;ratioP2;P2;SDS_P1;SDS_P2;PMS_P1;PMS_P2;Temp;Humidity;BMP_temperature;BMP_pressure;BME280_temperature;BME280_humidity;BME280_pressure;Samples;Min_cycle;Max_cycle;Signal;HPM_P1;HPM_P2
2022/03/25 00:01:04;;;;;;;28.83;11.85;;;;;;;4.56;36.36;99585.45;1775705;80;21035;-82
2022/03/25 00:03:31;;;;;;;23.25;9.80;;;;;;;4.54;37.62;99581.58;1766166;80;20999;-80
2022/03/25 00:05:58;;;;;;;23.15;9.35;;;;;;;4.54;36.68;99590.59;1754516;81;20964;-83
2022/03/25 00:08:26;;;;;;;24.05;9.95;;;;;;;4.55;35.20;99590.16;1764935;81;20987;-82
2022/03/25 00:10:53;;;;;;;20.08;9.55;;;;;;;4.58;35.50;99583.31;1772211;81;21030;-82
2022/03/25 00:13:19;;;;;;;20.90;9.38;;;;;;;4.61;35.00;99587.62;1769225;81;21059;-80
2022/03/25 00:15:46;;;;;;;26.65;10.13;;;;;;;4.66;35.24;99585.95;1773025;81;21431;-85
2022/03/25 00:18:13;;;;;;;22.52;8.88;;;;;;;4.71;35.56;99586.83;1761198;81;21082;-83
2022/03/25 00:20:40;;;;;;;20.52;9.33;;;;;;;4.76;35.03;99582.58;1773287;81;20995;-88
2022/03/25 00:23:07;;;;;;;18.02;7.95;;;;;;;4.83;36.05;99587.33;1771275;81;20948;-88
2022/03/25 00:25:34;;;;;;;16.77;7.85;;;;;;;4.88;36.45;99581.79;1753267;81;20991;-86
2022/03/25 00:28:01;;;;;;;15.60;7.30;;;;;;;4.94;36.00;99584.83;1774318;81;20960;-82
2022/03/25 00:30:29;;;;;;;17.87;7.45;;;;;;;5.06;35.52;99582.75;1775227;81;20995;-83
2022/03/25 00:32:57;;;;;;;16.95;7.40;;;;;;;5.14;35.97;99579.78;1770552;80;20944;-82
2022/03/25 00:35:23;;;;;;;17.95;7.47;;;;;;;5.20;35.79;99578.95;1775327;81;21003;-82
2022/03/25 00:37:50;;;;;;;17.80;7.40;;;;;;;5.23;36.65;99579.80;1773253;81;20992;-80
2022/03/25 00:40:17;;;;;;;15.30;6.50;;;;;;;5.26;36.27;99579.83;1775540;81;20991;-81
2022/03/25 00:42:47;;;;;;;14.98;6.83;;;;;;;5.33;36.33;99580.70;1775662;81;21028;-82
2022/03/25 00:45:14;;;;;;;18.30;7.00;;;;;;;5.38;36.21;99582.45;1769673;80;20971;-85
2022/03/25 00:47:41;;;;;;;18.50;7.90;;;;;;;5.43;34.78;99585.06;1766122;81;20979;-87
2022/03/25 00:50:08;;;;;;;20.40;6.87;;;;;;;5.47;34.87;99584.63;1764310;79;21027;-82
2022/03/25 00:52:35;;;;;;;18.23;6.95;;;;;;;5.51;35.68;99584.66;1775700;81;20995;-82
2022/03/25 00:55:02;;;;;;;16.30;6.72;;;;;;;5.54;34.33;99581.22;1772642;81;20995;-82
2022/03/25 00:57:29;;;;;;;19.45;7.08;;;;;;;5.56;34.82;99579.50;1776050;81;21055;-81
2022/03/25 00:59:56;;;;;;;16.35;6.47;;;;;;;5.56;34.84;99577.78;1776128;80;21066;-83
2022/03/25 01:02:23;;;;;;;14.23;6.85;;;;;;;5.56;34.75;99587.23;1776155;80;21294;-82
2022/03/25 01:04:50;;;;;;;21.70;6.95;;;;;;;5.54;35.12;99588.95;1772814;81;21035;-83
2022/03/25 01:07:17;;;;;;;15.93;6.72;;;;;;;5.51;35.93;99592.80;1775214;81;21000;-82
2022/03/25 01:09:45;;;;;;;14.87;6.97;;;;;;;5.48;34.47;99582.49;1776617;80;20971;-83
2022/03/25 01:12:12;;;;;;;18.02;6.80;;;;;;;5.44;34.65;99580.32;1776819;81;21022;-85
2022/03/25 01:14:39;;;;;;;19.32;7.10;;;;;;;5.40;34.47;99583.75;1776821;78;20968;-83
2022/03/25 01:17:06;;;;;;;14.40;6.53;;;;;;;5.33;34.97;99585.86;1753526;79;21207;-84
2022/03/25 01:19:34;;;;;;;16.00;6.83;;;;;;;5.27;34.67;99585.43;1707441;79;21090;-83
2022/03/25 01:22:03;;;;;;;23.75;7.95;;;;;;;5.23;35.23;99586.68;1708669;80;20980;-83
2022/03/25 01:24:30;;;;;;;19.60;7.28;;;;;;;5.18;35.66;99595.69;1711761;81;20973;-84
2022/03/25 01:26:57;;;;;;;21.52;9.30;;;;;;;5.12;37.13;99591.80;1775725;78;20954;-82
2022/03/25 01:29:24;;;;;;;29.82;10.60;;;;;;;5.02;36.89;99597.33;1775109;78;20956;-84
2022/03/25 01:31:51;;;;;;;26.07;11.18;;;;;;;4.93;37.80;99597.27;1775623;78;20976;-83
2022/03/25 01:34:18;;;;;;;27.48;11.33;;;;;;;4.82;37.66;99598.50;1753719;81;21004;-83
2022/03/25 01:36:47;;;;;;;24.30;11.38;;;;;;;4.64;37.41;99592.80;1734278;83;21023;-83
2022/03/25 01:39:14;;;;;;;26.87;10.80;;;;;;;4.50;38.77;99599.58;1765447;81;21031;-82
2022/03/25 01:41:41;;;;;;;23.00;9.75;;;;;;;4.37;39.58;99599.89;1776467;80;20968;-83
2022/03/25 01:44:27;;;;;;;21.87;8.90;;;;;;;4.26;38.63;99607.53;1762949;78;21017;-83
2022/03/25 01:46:56;;;;;;;28.25;10.55;;;;;;;4.22;39.14;99604.50;1754309;79;20995;-81
2022/03/25 01:49:25;;;;;;;26.75;9.68;;;;;;;4.18;40.17;99610.04;1776996;78;21023;-83
2022/03/25 01:51:56;;;;;;;24.30;10.13;;;;;;;4.11;38.57;99610.81;1776520;81;21350;-83
2022/03/25 01:54:32;;;;;;;25.17;10.48;;;;;;;3.98;39.91;99606.42;1775525;80;21023;-82
2022/03/25 01:57:05;;;;;;;26.17;11.00;;;;;;;3.87;38.78;99610.59;1774889;81;21040;-83
2022/03/25 01:59:33;;;;;;;31.97;10.98;;;;;;;3.74;41.20;99613.44;1774910;80;20999;-83
2022/03/25 02:02:02;;;;;;;25.02;9.50;;;;;;;3.65;38.62;99618.07;1774971;81;21027;-81
2022/03/25 02:04:31;;;;;;;26.77;10.63;;;;;;;3.57;40.38;99613.27;1762901;80;20968;-83
2022/03/25 02:06:58;;;;;;;27.10;10.53;;;;;;;3.53;41.70;99616.65;1768093;81;21046;-82
2022/03/25 02:09:28;;;;;;;23.40;10.68;;;;;;;3.49;41.96;99618.75;1776592;81;20995;-82
2022/03/25 02:12:00;;;;;;;26.33;11.10;;;;;;;3.45;42.72;99626.84;1776089;80;21031;-83
2022/03/25 02:14:27;;;;;;;25.70;10.13;;;;;;;3.41;43.90;99623.79;1771481;81;21016;-83
2022/03/25 02:16:53;;;;;;;25.45;10.80;;;;;;;3.34;40.63;99630.58;1775583;81;20963;-82
2022/03/25 02:19:25;;;;;;;25.85;11.45;;;;;;;3.31;42.95;99629.23;1756515;81;20913;-82
2022/03/25 02:21:50;;;;;;;35.17;12.28;;;;;;;3.27;42.87;99631.33;1776401;81;21031;-82
2022/03/25 02:24:18;;;;;;;26.45;10.55;;;;;;;3.24;43.20;99630.42;1776740;80;20971;-83
2022/03/25 02:26:47;;;;;;;29.63;9.83;;;;;;;3.20;40.85;99630.80;1776507;80;20992;-83
2022/03/25 02:29:16;;;;;;;26.07;11.03;;;;;;;3.14;40.48;99632.00;1770134;81;20963;-82
2022/03/25 02:31:43;;;;;;;28.25;9.10;;;;;;;3.03;42.39;99634.86;1776769;81;21047;-83
2022/03/25 02:34:10;;;;;;;22.40;10.32;;;;;;;2.94;43.58;99631.30;1776588;80;20996;-83
2022/03/25 02:36:43;;;;;;;28.83;10.98;;;;;;;2.88;42.22;99638.91;1750319;81;21011;-83
2022/03/25 02:39:12;;;;;;;29.45;10.85;;;;;;;2.86;44.01;99639.31;1766673;81;21015;-83
2022/03/25 02:41:40;;;;;;;34.10;13.45;;;;;;;2.85;44.22;99651.73;1750707;81;20987;-82
2022/03/25 02:44:07;;;;;;;36.15;12.40;;;;;;;2.80;44.68;99649.50;1740272;81;21037;-82
2022/03/25 02:46:35;;;;;;;38.25;14.35;;;;;;;2.69;43.54;99648.49;1771124;80;20988;-85
2022/03/25 02:49:03;;;;;;;36.45;13.43;;;;;;;2.54;43.03;99653.80;1776886;81;21070;-83
2022/03/25 02:51:29;;;;;;;39.42;15.25;;;;;;;2.36;44.66;99658.21;1775909;80;21000;-82
2022/03/25 02:53:56;;;;;;;37.83;15.63;;;;;;;2.25;43.12;99658.47;1746421;82;20952;-83
2022/03/25 02:56:24;;;;;;;36.05;14.40;;;;;;;2.14;48.05;99654.84;1739576;80;21042;-82
2022/03/25 02:58:52;;;;;;;35.33;14.43;;;;;;;2.07;46.91;99649.14;1769749;81;20984;-83
2022/03/25 03:01:18;;;;;;;27.98;12.40;;;;;;;2.00;43.31;99655.88;1722733;83;21043;-84
2022/03/25 03:03:45;;;;;;;41.60;14.83;;;;;;;1.95;46.40;99658.75;1776995;81;20975;-83
2022/03/25 03:06:11;;;;;;;33.45;14.73;;;;;;;1.92;50.76;99657.01;1777100;80;21042;-82
2022/03/25 03:08:41;;;;;;;44.83;15.32;;;;;;;1.90;48.72;99664.23;1776903;80;20999;-83
2022/03/25 03:11:08;;;;;;;36.58;13.48;;;;;;;1.88;47.61;99663.34;1777089;79;21003;-81
2022/03/25 03:13:35;;;;;;;34.73;15.70;;;;;;;1.87;48.00;99669.28;1777113;79;21003;-81
2022/03/25 03:16:01;;;;;;;35.85;15.40;;;;;;;1.82;48.12;99678.19;1776985;79;21039;-80
2022/03/25 03:18:28;;;;;;;35.52;15.15;;;;;;;1.75;47.57;99672.08;1776839;79;20979;-81
2022/03/25 03:20:55;;;;;;;42.40;14.83;;;;;;;1.73;48.44;99675.42;1777079;81;20956;-80
2022/03/25 03:23:21;;;;;;;34.83;14.10;;;;;;;1.72;49.66;99673.29;1777092;80;20975;-80
2022/03/25 03:25:48;;;;;;;33.20;14.85;;;;;;;1.69;49.29;99678.38;1745398;79;20946;-81
2022/03/25 03:28:15;;;;;;;32.83;14.13;;;;;;;1.67;48.38;99681.72;1777122;80;21416;-79
2022/03/25 03:30:42;;;;;;;32.53;13.08;;;;;;;1.64;48.28;99681.67;1777003;80;20968;-80
2022/03/25 03:33:09;;;;;;;32.03;11.45;;;;;;;1.61;48.75;99680.31;1777356;81;20976;-80
2022/03/25 03:35:36;;;;;;;26.77;12.33;;;;;;;1.57;49.86;99678.98;1775738;79;20960;-80
2022/03/25 03:38:04;;;;;;;30.25;12.35;;;;;;;1.55;48.38;99685.78;1777101;81;21034;-81
2022/03/25 03:40:30;;;;;;;33.42;13.22;;;;;;;1.50;49.80;99691.22;1777228;79;20990;-80
2022/03/25 03:42:57;;;;;;;27.90;11.93;;;;;;;1.49;48.40;99691.17;1769727;79;20999;-81
2022/03/25 03:45:24;;;;;;;32.33;12.95;;;;;;;1.49;48.98;99691.17;1776980;79;21038;-81
2022/03/25 03:47:51;;;;;;;26.87;13.32;;;;;;;1.49;47.43;99688.61;1770458;79;20955;-79
2022/03/25 03:50:18;;;;;;;26.90;13.18;;;;;;;1.44;49.51;99690.23;1774190;80;21039;-80
2022/03/25 03:52:45;;;;;;;28.42;12.25;;;;;;;1.40;51.09;99689.30;1775615;81;21056;-79
2022/03/25 03:55:12;;;;;;;32.83;12.68;;;;;;;1.42;49.82;99690.19;1769772;81;21029;-81
2022/03/25 03:57:40;;;;;;;36.98;15.93;;;;;;;1.40;50.05;99689.30;1744574;81;21030;-78
2022/03/25 04:00:11;;;;;;;40.50;14.47;;;;;;;1.42;49.98;99685.06;1769127;81;21503;-80
2022/03/25 04:02:41;;;;;;;;;;;;;;;1.39;49.26;99685.88;1776608;81;20980;-80
2022/03/25 04:05:10;;;;;;;46.45;15.95;;;;;;;1.38;52.18;99683.27;1777002;81;20096;-81
2022/03/25 04:07:46;;;;;;;43.15;15.72;;;;;;;1.36;50.70;99687.08;1777013;81;21017;-80
2022/03/25 04:10:14;;;;;;;58.42;16.02;;;;;;;1.36;50.33;99685.80;1758114;81;21065;-80
2022/03/25 04:12:41;;;;;;;43.13;13.30;;;;;;;1.35;48.73;99693.05;1777101;81;21031;-81
2022/03/25 04:15:10;;;;;;;40.28;16.70;;;;;;;1.37;50.32;99696.51;1777050;79;21003;-83
2022/03/25 04:17:43;;;;;;;31.73;14.93;;;;;;;1.37;49.84;99692.66;1748279;81;20998;-82
2022/03/25 04:20:13;;;;;;;38.23;16.10;;;;;;;1.37;49.47;99699.07;1760372;81;20960;-79
2022/03/25 04:22:42;;;;;;;35.68;14.13;;;;;;;1.35;47.31;99696.00;1777219;81;20967;-82
2022/03/25 04:25:09;;;;;;;37.05;14.18;;;;;;;1.31;50.48;99695.09;1761447;79;20987;-83
2022/03/25 04:27:54;;;;;;;39.92;13.30;;;;;;;1.31;50.59;99696.37;1746482;82;20980;-83
2022/03/25 04:30:24;;;;;;;51.88;21.45;;;;;;;1.24;52.05;99702.19;1747419;81;20977;-83
2022/03/25 04:32:51;;;;;;;33.83;14.03;;;;;;;1.23;51.70;99703.00;1746547;82;21014;-81
2022/03/25 04:35:20;;;;;;;27.15;12.05;;;;;;;1.18;50.53;99704.61;1746470;81;21019;-81
2022/03/25 04:37:47;;;;;;;35.60;14.38;;;;;;;1.14;48.23;99705.38;1746392;80;21046;-83
2022/03/25 04:40:19;;;;;;;44.18;14.20;;;;;;;1.09;48.51;99714.64;1766280;81;21004;-82
2022/03/25 04:42:48;;;;;;;46.58;16.27;;;;;;;1.07;50.98;99718.86;1777139;81;20940;-82
2022/03/25 04:45:15;;;;;;;45.52;13.93;;;;;;;1.09;52.17;99717.20;1776502;80;21063;-82
2022/03/25 04:47:43;;;;;;;50.83;17.17;;;;;;;1.12;51.70;99721.13;1777724;79;21244;-83
2022/03/25 04:50:10;;;;;;;50.85;18.77;;;;;;;1.11;51.72;99720.66;1751566;81;21047;-82
2022/03/25 04:52:37;;;;;;;45.52;14.90;;;;;;;1.09;51.84;99720.62;1709985;83;21056;-81
2022/03/25 04:55:04;;;;;;;39.55;16.35;;;;;;;1.12;51.90;99727.10;1706946;84;21009;-83
2022/03/25 04:57:31;;;;;;;39.78;15.65;;;;;;;1.15;51.97;99716.95;1693121;84;21000;-83
2022/03/25 04:59:58;;;;;;;65.65;19.77;;;;;;;1.18;51.11;99724.68;1719055;82;21008;-82
2022/03/25 05:02:26;;;;;;;81.05;20.43;;;;;;;1.20;51.18;99724.72;1721984;83;21060;-82
2022/03/25 05:04:55;;;;;;;114.62;24.47;;;;;;;1.20;52.44;99728.56;1722012;82;20992;-82
2022/03/25 05:07:21;;;;;;;75.70;18.95;;;;;;;1.21;52.20;99725.16;1721891;82;20987;-84
2022/03/25 05:09:48;;;;;;;117.10;24.05;;;;;;;1.26;52.69;99725.28;1721876;82;21006;-83
2022/03/25 05:12:15;;;;;;;109.32;24.47;;;;;;;1.30;53.80;99729.22;1718754;83;21016;-83
2022/03/25 05:14:42;;;;;;;91.95;22.98;;;;;;;1.34;54.33;99729.73;1721897;81;21029;-83
2022/03/25 05:17:08;;;;;;;95.72;23.22;;;;;;;1.39;53.22;99724.31;1721899;83;21066;-84
2022/03/25 05:19:35;;;;;;;70.47;19.27;;;;;;;1.46;52.40;99728.28;1721963;82;20973;-83
2022/03/25 05:22:02;;;;;;;65.70;20.50;;;;;;;1.49;49.17;99726.66;1721824;82;21052;-84
2022/03/25 05:24:29;;;;;;;57.53;19.40;;;;;;;1.50;50.66;99724.95;1687348;83;20983;-83
2022/03/25 05:26:59;;;;;;;55.48;18.25;;;;;;;1.53;52.36;99726.28;1692773;85;20984;-83
2022/03/25 05:29:24;;;;;;;62.15;18.67;;;;;;;1.58;50.96;99729.82;1693060;82;21302;-80
2022/03/25 05:31:50;;;;;;;46.60;16.25;;;;;;;1.65;51.69;99740.66;1693076;85;21009;-82
2022/03/25 05:34:17;;;;;;;57.15;16.15;;;;;;;1.75;51.50;99741.30;1716388;81;20988;-79
2022/03/25 05:36:44;;;;;;;56.73;16.35;;;;;;;1.82;52.32;99727.32;1717611;82;20969;-81
2022/03/25 05:39:11;;;;;;;49.95;14.93;;;;;;;1.87;50.82;99728.27;1718622;82;20996;-80
2022/03/25 05:41:38;;;;;;;52.70;14.68;;;;;;;1.94;51.07;99741.66;1668254;85;21005;-81
2022/03/25 05:44:06;;;;;;;57.98;15.68;;;;;;;2.02;51.88;99734.98;1703905;82;20978;-82
2022/03/25 05:46:34;;;;;;;42.73;14.55;;;;;;;2.12;50.89;99736.89;1710664;84;21071;-83
2022/03/25 05:49:01;;;;;;;43.35;16.02;;;;;;;2.20;51.11;99739.60;1711523;83;20987;-83
2022/03/25 05:51:29;;;;;;;38.10;15.20;;;;;;;2.29;49.27;99742.75;1764818;80;20991;-83
2022/03/25 05:53:55;;;;;;;51.58;16.87;;;;;;;2.33;49.63;99743.28;1749330;81;21030;-84
2022/03/25 05:56:22;;;;;;;49.70;19.90;;;;;;;2.41;50.18;99747.24;1776940;81;21022;-83
2022/03/25 05:58:49;;;;;;;48.68;18.50;;;;;;;2.49;50.51;99737.58;1775218;81;20945;-83
2022/03/25 06:01:16;;;;;;;46.15;16.23;;;;;;;2.56;50.40;99739.40;1774702;81;21012;-82
2022/03/25 06:03:43;;;;;;;50.43;19.95;;;;;;;2.66;48.94;99746.84;1775143;81;20959;-83
2022/03/25 06:06:09;;;;;;;50.43;20.88;;;;;;;2.79;48.83;99742.80;1770718;81;20959;-82
2022/03/25 06:08:36;;;;;;;47.98;19.90;;;;;;;2.90;49.25;99745.10;1776409;81;21053;-84
2022/03/25 06:11:03;;;;;;;46.73;19.57;;;;;;;3.01;48.14;99746.58;1767249;81;21003;-83
2022/03/25 06:13:30;;;;;;;51.40;19.92;;;;;;;3.14;48.36;99742.48;1755629;81;20972;-83
2022/03/25 06:15:56;;;;;;;48.78;19.30;;;;;;;3.22;48.04;99735.75;1759016;81;21017;-84
2022/03/25 06:18:23;;;;;;;51.10;16.93;;;;;;;3.34;48.01;99737.23;1776698;81;20994;-83
2022/03/25 06:20:50;;;;;;;44.67;18.57;;;;;;;3.47;47.42;99729.69;1776559;80;21511;-84
2022/03/25 06:23:17;;;;;;;41.53;17.15;;;;;;;3.57;46.84;99729.82;1748851;81;20969;-83
2022/03/25 06:25:43;;;;;;;43.05;17.23;;;;;;;3.70;48.14;99726.13;1769888;81;20963;-84
2022/03/25 06:28:10;;;;;;;42.30;18.40;;;;;;;3.82;46.21;99725.02;1775531;81;21479;-84
2022/03/25 06:30:39;;;;;;;40.95;15.68;;;;;;;3.94;45.54;99719.16;1776343;80;20975;-83
2022/03/25 06:33:09;;;;;;;47.30;16.07;;;;;;;4.05;46.68;99719.27;1776322;80;21051;-83
2022/03/25 06:35:38;;;;;;;38.60;16.30;;;;;;;4.20;45.51;99731.02;1776254;81;21018;-83
2022/03/25 06:38:07;;;;;;;42.95;15.43;;;;;;;4.34;45.94;99729.45;1772403;81;20900;-83
2022/03/25 06:40:36;;;;;;;35.25;13.78;;;;;;;4.49;46.89;99732.58;1753935;81;21907;-84
2022/03/25 06:43:04;;;;;;;34.45;13.40;;;;;;;4.63;46.54;99732.72;1776382;81;21056;-83
2022/03/25 06:45:31;;;;;;;32.70;14.53;;;;;;;4.76;45.62;99728.55;1752272;81;21047;-84
2022/03/25 06:47:58;;;;;;;29.20;13.65;;;;;;;4.89;44.65;99732.08;1776544;81;20967;-84
2022/03/25 06:50:26;;;;;;;47.50;15.75;;;;;;;5.01;44.41;99728.73;1776305;79;21059;-83
2022/03/25 06:52:54;;;;;;;34.38;14.95;;;;;;;5.12;44.94;99732.27;1776564;78;21120;-83
2022/03/25 06:55:21;;;;;;;30.82;14.35;;;;;;;5.24;45.04;99726.34;1757245;80;21007;-83
2022/03/25 06:57:50;;;;;;;33.67;14.68;;;;;;;5.35;44.21;99728.13;1770879;81;21003;-83
2022/03/25 07:00:18;;;;;;;43.30;15.38;;;;;;;5.49;44.10;99726.04;1773179;81;20996;-83
2022/03/25 07:02:46;;;;;;;33.18;15.50;;;;;;;5.62;44.23;99723.97;1736104;79;21098;-83
2022/03/25 07:05:15;;;;;;;30.85;14.50;;;;;;;5.78;43.95;99727.48;1726734;83;21011;-81
2022/03/25 07:07:43;;;;;;;41.10;14.90;;;;;;;5.92;43.57;99727.55;1765316;81;21019;-81
2022/03/25 07:10:12;;;;;;;36.17;15.55;;;;;;;6.05;43.39;99724.19;1772247;79;20993;-83
2022/03/25 07:12:44;;;;;;;38.30;16.67;;;;;;;6.17;42.85;99722.93;1770324;81;20968;-81
2022/03/25 07:15:12;;;;;;;33.28;15.08;;;;;;;6.29;42.89;99727.27;1762765;79;20984;-81
2022/03/25 07:17:41;;;;;;;34.48;14.60;;;;;;;6.46;42.61;99731.59;1754643;79;20964;-80
2022/03/25 07:20:13;;;;;;;43.90;15.20;;;;;;;6.60;42.46;99726.45;1758220;80;21046;-81
2022/03/25 07:22:40;;;;;;;33.70;14.15;;;;;;;6.71;42.23;99728.63;1769690;80;21551;-79
2022/03/25 07:25:07;;;;;;;36.75;14.33;;;;;;;6.85;42.11;99723.03;1764830;79;21147;-80
2022/03/25 07:27:34;;;;;;;31.30;14.10;;;;;;;7.01;41.98;99720.45;1765589;79;21483;-79
2022/03/25 07:30:01;;;;;;;35.05;14.20;;;;;;;7.13;41.81;99722.58;1767869;79;21021;-80
2022/03/25 07:32:28;;;;;;;33.55;12.95;;;;;;;7.28;41.73;99720.83;1770934;81;21469;-81
2022/03/25 07:34:55;;;;;;;35.90;13.58;;;;;;;7.39;41.64;99711.77;1754468;81;20952;-79
2022/03/25 07:37:21;;;;;;;33.65;13.72;;;;;;;7.52;41.55;99714.73;1759821;81;21051;-81
2022/03/25 07:39:48;;;;;;;34.83;13.72;;;;;;;7.61;41.36;99708.25;1764000;81;20983;-79
2022/03/25 07:42:14;;;;;;;29.65;12.30;;;;;;;7.73;41.24;99717.25;1768035;80;20984;-80
2022/03/25 07:44:41;;;;;;;34.55;12.93;;;;;;;7.84;41.00;99708.58;1770131;81;21047;-81
2022/03/25 07:47:11;;;;;;;27.32;13.18;;;;;;;7.94;40.77;99702.53;1764489;81;20999;-80
2022/03/25 07:49:39;;;;;;;26.70;11.78;;;;;;;8.09;40.61;99702.87;1762299;81;20966;-82
2022/03/25 07:52:07;;;;;;;27.98;11.80;;;;;;;8.22;39.74;99697.20;1763407;81;21047;-82
2022/03/25 07:54:35;;;;;;;28.57;11.08;;;;;;;8.34;40.00;99701.01;1723905;83;21036;-80
2022/03/25 07:57:02;;;;;;;32.03;12.05;;;;;;;8.49;39.20;99696.17;1765210;80;21002;-80
2022/03/25 07:59:29;;;;;;;19.05;10.13;;;;;;;8.65;38.38;99692.59;1774305;81;21451;-81
2022/03/25 08:01:56;;;;;;;24.70;9.60;;;;;;;8.80;38.25;99690.33;1767436;81;21066;-79
2022/03/25 08:04:24;;;;;;;21.37;8.78;;;;;;;8.93;37.53;99685.88;1759409;81;21076;-80
2022/03/25 08:06:53;;;;;;;18.12;8.50;;;;;;;9.09;37.16;99681.41;1766402;80;20940;-79
2022/03/25 08:09:20;;;;;;;25.48;10.58;;;;;;;9.18;35.89;99685.67;1759922;81;20998;-80
2022/03/25 08:11:47;;;;;;;25.37;10.82;;;;;;;9.30;36.95;99682.50;1723621;83;21059;-79
2022/03/25 08:14:15;;;;;;;26.27;11.10;;;;;;;9.46;36.78;99680.59;1775582;80;20991;-80
2022/03/25 08:16:42;;;;;;;22.77;10.55;;;;;;;9.58;36.56;99693.88;1767177;81;20967;-80
2022/03/25 08:19:09;;;;;;;26.40;12.03;;;;;;;9.68;36.12;99683.80;1772275;81;21012;-80
2022/03/25 08:21:35;;;;;;;28.12;12.80;;;;;;;9.78;36.30;99674.61;1728771;82;20953;-80
2022/03/25 08:29:34;;;;;;;25.20;10.93;;;;;;;10.08;35.78;99675.49;1715197;83;21118;-79
2022/03/25 08:32:01;;;;;;;24.98;9.68;;;;;;;10.17;35.41;99664.13;1754905;80;21540;-81
2022/03/25 08:34:28;;;;;;;27.90;10.18;;;;;;;10.21;33.76;99669.70;1771654;81;20984;-79
2022/03/25 08:36:54;;;;;;;21.57;9.43;;;;;;;10.34;34.36;99665.20;1775958;80;20957;-80
2022/03/25 08:39:22;;;;;;;22.48;9.50;;;;;;;10.44;33.72;99662.88;1765853;81;20983;-80
2022/03/25 08:41:50;;;;;;;22.37;9.50;;;;;;;10.49;34.03;99654.58;1765782;81;20971;-80
2022/03/25 08:44:16;;;;;;;18.45;8.65;;;;;;;10.54;33.81;99652.77;1758850;81;21089;-80
2022/03/25 08:46:43;;;;;;;21.02;8.88;;;;;;;10.67;32.68;99660.38;1774926;81;21007;-80
2022/03/25 08:49:10;;;;;;;18.30;8.28;;;;;;;10.78;32.66;99655.83;1771592;80;21484;-80
2022/03/25 08:51:37;;;;;;;23.22;8.23;;;;;;;10.88;33.12;99652.21;1773057;80;21447;-80
2022/03/25 08:54:04;;;;;;;21.27;8.28;;;;;;;10.97;32.97;99655.53;1767972;81;21050;-81
2022/03/25 08:56:31;;;;;;;20.00;8.50;;;;;;;11.08;32.57;99649.25;1775265;79;21008;-81
2022/03/25 08:58:58;;;;;;;20.12;8.95;;;;;;;11.08;31.82;99650.97;1750359;80;21022;-80
2022/03/25 09:01:25;;;;;;;21.05;8.95;;;;;;;11.17;32.25;99648.66;1760755;81;21495;-80
2022/03/25 09:03:52;;;;;;;20.50;8.88;;;;;;;11.23;31.65;99655.05;1774214;80;21023;-83
2022/03/25 09:06:19;;;;;;;20.52;9.40;;;;;;;11.27;32.69;99639.79;1765585;80;21006;-83
2022/03/25 09:08:46;;;;;;;19.37;8.75;;;;;;;11.40;32.50;99639.97;1770372;81;21522;-82
2022/03/25 09:11:12;;;;;;;18.05;8.60;;;;;;;11.49;32.14;99637.62;1775228;79;21346;-81
2022/03/25 09:13:40;;;;;;;18.98;9.38;;;;;;;11.54;30.45;99637.95;1775508;80;20951;-81
2022/03/25 09:16:07;;;;;;;19.90;9.03;;;;;;;11.61;31.66;99632.61;1767464;81;20967;-81
2022/03/25 09:18:34;;;;;;;20.35;8.55;;;;;;;11.69;31.28;99631.55;1775552;81;21010;-77
2022/03/25 09:21:01;;;;;;;19.50;8.98;;;;;;;11.78;30.61;99629.63;1766375;81;21034;-79
2022/03/25 09:23:28;;;;;;;17.17;8.58;;;;;;;11.83;30.99;99629.95;1760712;81;21487;-79
2022/03/25 09:25:55;;;;;;;17.48;8.48;;;;;;;11.92;29.83;99623.73;1767803;80;21002;-78
2022/03/25 09:28:21;;;;;;;18.77;8.80;;;;;;;11.99;30.68;99625.75;1765184;81;21038;-78
2022/03/25 09:30:48;;;;;;;18.75;8.73;;;;;;;12.04;30.04;99614.78;1766734;79;21058;-79
2022/03/25 09:33:27;;;;;;;24.45;8.75;;;;;;;12.17;30.67;99617.50;1763376;81;21014;-81
2022/03/25 09:35:54;;;;;;;18.12;7.97;;;;;;;12.27;30.29;99619.45;1770424;79;21601;-78
2022/03/25 09:38:21;;;;;;;16.20;8.23;;;;;;;12.39;29.62;99622.21;1756746;81;20975;-79
2022/03/25 09:40:48;;;;;;;16.15;7.72;;;;;;;12.42;28.24;99619.55;1773034;81;21487;-79
2022/03/25 09:43:18;;;;;;;17.15;7.47;;;;;;;12.46;29.25;99623.79;1761291;81;20959;-82
2022/03/25 09:45:45;;;;;;;14.53;7.80;;;;;;;12.53;28.34;99621.42;1773285;80;21098;-78
2022/03/25 09:48:13;;;;;;;16.50;8.08;;;;;;;12.65;28.75;99617.23;1747056;81;20963;-79
2022/03/25 09:50:40;;;;;;;18.25;8.05;;;;;;;12.78;28.67;99620.37;1763004;81;21441;-80
2022/03/25 09:53:08;;;;;;;21.90;7.53;;;;;;;12.85;28.37;99620.63;1713682;83;21071;-80
2022/03/25 09:55:40;;;;;;;20.72;7.28;;;;;;;12.91;28.66;99615.25;1717115;83;20985;-81
2022/03/25 09:58:08;;;;;;;15.40;6.97;;;;;;;13.00;28.87;99611.98;1713735;83;21012;-80
2022/03/25 10:00:35;;;;;;;19.35;6.75;;;;;;;13.14;28.54;99609.84;1716286;83;20989;-80
2022/03/25 10:03:03;;;;;;;19.82;7.45;;;;;;;13.24;27.20;99604.77;1713801;83;21020;-80
2022/03/25 10:05:30;;;;;;;20.70;7.80;;;;;;;13.35;28.67;99607.56;1715375;83;20982;-83
2022/03/25 10:07:57;;;;;;;18.50;7.15;;;;;;;13.45;27.95;99603.36;1709244;83;20999;-80
2022/03/25 10:10:29;;;;;;;17.87;7.40;;;;;;;13.52;27.03;99606.18;1694582;84;21499;-79
2022/03/25 10:13:07;;;;;;;19.65;7.65;;;;;;;13.56;27.23;99609.56;1692204;84;21330;-80
2022/03/25 10:15:38;;;;;;;15.32;7.15;;;;;;;13.64;27.11;99607.58;1694508;82;21039;-79
2022/03/25 10:18:07;;;;;;;15.45;7.87;;;;;;;13.75;27.40;99602.05;1709268;84;20973;-77
2022/03/25 10:20:41;;;;;;;17.75;6.87;;;;;;;13.88;27.60;99603.83;1702171;84;21464;-79
2022/03/25 10:23:19;;;;;;;18.52;7.60;;;;;;;13.97;26.53;99607.48;1707574;84;21036;-79
2022/03/25 10:25:51;;;;;;;21.15;8.83;;;;;;;14.03;26.35;99603.83;1702763;84;21005;-83
2022/03/25 10:28:39;;;;;;;15.53;7.08;;;;;;;14.13;27.04;99594.78;1707601;84;21046;-79
2022/03/25 10:31:17;;;;;;;16.02;7.62;;;;;;;14.25;26.49;99597.00;1707455;84;21512;-81
2022/03/25 10:33:52;;;;;;;20.20;7.55;;;;;;;14.32;25.94;99591.99;1703826;84;21024;-80
2022/03/25 10:36:21;;;;;;;14.00;6.87;;;;;;;14.30;23.70;99599.47;1709843;84;20956;-80
2022/03/25 10:38:58;;;;;;;16.07;6.80;;;;;;;14.33;25.44;99591.53;1709280;84;21040;-80
2022/03/25 10:41:38;;;;;;;15.45;7.05;;;;;;;14.33;25.76;99581.91;1694821;83;21016;-80
2022/03/25 10:44:05;;;;;;;17.12;6.62;;;;;;;14.48;25.90;99575.77;1695966;84;21000;-82
2022/03/25 10:46:41;;;;;;;15.48;7.03;;;;;;;14.66;25.37;99568.66;1707273;83;21044;-80
2022/03/25 10:49:12;;;;;;;11.05;6.28;;;;;;;14.71;24.59;99571.95;1710400;84;21016;-79
2022/03/25 10:51:42;;;;;;;15.70;6.80;;;;;;;14.74;23.67;99563.14;1708727;84;20993;-81
2022/03/25 10:54:14;;;;;;;15.15;5.58;;;;;;;14.85;24.54;99568.86;1704538;83;21005;-80
2022/03/25 10:56:55;;;;;;;15.23;6.25;;;;;;;14.99;24.37;99560.52;1709684;84;21493;-82
2022/03/25 10:59:32;;;;;;;13.93;6.22;;;;;;;15.10;23.70;99558.37;1709860;83;21084;-80
2022/03/25 11:02:02;;;;;;;14.85;5.95;;;;;;;15.25;23.00;99558.27;1706191;82;21011;-80
2022/03/25 11:04:29;;;;;;;18.98;5.72;;;;;;;15.42;23.80;99552.84;1710167;83;21576;-80
2022/03/25 11:06:58;;;;;;;17.87;6.25;;;;;;;15.51;22.05;99561.21;1703501;82;21037;-80
2022/03/25 11:09:27;;;;;;;11.80;5.00;;;;;;;15.59;23.15;99545.20;1703838;82;20992;-80
2022/03/25 11:11:55;;;;;;;14.65;5.92;;;;;;;15.75;22.58;99544.64;1703244;84;21073;-81
2022/03/25 11:14:23;;;;;;;12.55;5.47;;;;;;;15.87;22.52;99541.07;1711702;82;21008;-81
2022/03/25 11:16:59;;;;;;;13.13;5.25;;;;;;;16.05;22.94;99547.34;1702153;84;21573;-80
2022/03/25 11:19:27;;;;;;;15.60;6.33;;;;;;;16.19;21.86;99528.89;1710637;83;20949;-79
2022/03/25 11:21:54;;;;;;;8.60;3.72;;;;;;;16.38;21.07;99537.70;1699768;84;21023;-79
2022/03/25 11:24:32;;;;;;;8.15;3.67;;;;;;;16.61;20.77;99535.87;1686241;84;21051;-79
2022/03/25 11:27:19;;;;;;;15.10;4.08;;;;;;;16.79;21.08;99515.41;1691891;84;21118;-80
2022/03/25 11:29:49;;;;;;;11.05;3.80;;;;;;;17.11;21.02;99524.97;1708239;84;20988;-80
2022/03/25 11:32:17;;;;;;;15.53;4.10;;;;;;;17.31;21.02;99525.38;1700569;82;21627;-79
2022/03/25 11:34:58;;;;;;;8.65;3.65;;;;;;;17.60;20.81;99520.53;1697394;84;21056;-81
2022/03/25 11:37:33;;;;;;;13.98;4.15;;;;;;;17.97;20.73;99528.02;1689053;82;21040;-80